Time;durP1;ratioP1;P1;durP2;ratioP2;P2;SDS_P1;SDS_P2;PMS_P1;PMS_P2;Temp;Humidity;BMP_temperature;BMP_pressure;BME280_temperature;BME280_humidity;BME280_pressure;Samples;Min_cycle;Max_cycle;Signal;HPM_P1;HPM_P2
2022/03/19 00:02:01;;;;;;;8.13;2.45;;;;;;;;;;4999996;28;20168;-59
2022/03/19 00:04:29;;;;;;;13.95;3.25;;;;;;;;;;5006313;28;20057;-57
2022/03/19 00:06:56;;;;;;;7.32;2.38;;;;;;;;;;5013231;28;20064;-58
2022/03/19 00:09:23;;;;;;;6.28;2.42;;;;;;;;;;5020900;28;20061;-54
2022/03/19 00:11:49;;;;;;;8.40;2.63;;;;;;;;;;5023927;28;20056;-56
2022/03/19 00:14:16;;;;;;;8.57;2.35;;;;;;;;;;5018254;28;20112;-50
2022/03/19 00:16:42;;;;;;;10.57;2.47;;;;;;;;;;5024139;28;20061;-52
2022/03/19 00:19:09;;;;;;;11.55;2.72;;;;;;;;;;5001390;28;20057;-58
2022/03/19 00:21:39;;;;;;;7.32;2.25;;;;;;;;;;5024038;28;20137;-58
2022/03/19 00:24:07;;;;;;;8.95;2.40;;;;;;;;;;5002306;28;20046;-51
2022/03/19 00:26:34;;;;;;;7.78;2.05;;;;;;;;;;5023591;28;20145;-54
2022/03/19 00:29:01;;;;;;;12.18;2.47;;;;;;;;;;5017632;28;20052;-55
2022/03/19 00:31:31;;;;;;;8.32;2.70;;;;;;;;;;5023632;28;20076;-59
2022/03/19 00:33:57;;;;;;;5.07;2.35;;;;;;;;;;5018691;28;20164;-54
2022/03/19 00:36:24;;;;;;;8.55;2.25;;;;;;;;;;5023797;28;20145;-55
2022/03/19 00:38:53;;;;;;;11.70;2.53;;;;;;;;;;5004806;28;20132;-50
2022/03/19 00:41:20;;;;;;;8.90;2.38;;;;;;;;;;5010981;28;20104;-56
2022/03/19 00:43:47;;;;;;;6.78;2.10;;;;;;;;;;5021817;28;20062;-54
2022/03/19 00:46:15;;;;;;;7.18;2.17;;;;;;;;;;5027474;28;20169;-57
2022/03/19 00:48:42;;;;;;;3.67;1.67;;;;;;;;;;5022442;28;20057;-50
2022/03/19 00:51:08;;;;;;;11.27;2.85;;;;;;;;;;5047759;28;20077;-55
2022/03/19 00:53:35;;;;;;;9.30;2.05;;;;;;;;;;5043799;28;20053;-61
2022/03/19 00:56:05;;;;;;;9.45;1.98;;;;;;;;;;5027224;28;20053;-64
2022/03/19 00:58:32;;;;;;;10.32;2.55;;;;;;;;;;5028408;28;20117;-54
2022/03/19 01:00:59;;;;;;;16.42;2.40;;;;;;;;;;5004549;28;20111;-58
2022/03/19 01:03:26;;;;;;;12.25;2.90;;;;;;;;;;5026635;28;20077;-58
2022/03/19 01:05:52;;;;;;;8.93;2.00;;;;;;;;;;5020880;28;20079;-55
2022/03/19 01:08:19;;;;;;;9.48;1.90;;;;;;;;;;5009434;28;20057;-59
2022/03/19 01:10:46;;;;;;;5.72;2.03;;;;;;;;;;5020735;28;20060;-58
2022/03/19 01:13:14;;;;;;;9.77;2.55;;;;;;;;;;5026492;28;20053;-56
2022/03/19 01:15:40;;;;;;;8.95;2.42;;;;;;;;;;5030588;28;20068;-57
2022/03/19 01:18:08;;;;;;;9.25;2.05;;;;;;;;;;5029087;28;20053;-60
2022/03/19 01:20:35;;;;;;;11.95;2.53;;;;;;;;;;5031929;28;20061;-60
2022/03/19 01:23:02;;;;;;;6.82;1.92;;;;;;;;;;5025769;28;20146;-63
2022/03/19 01:25:28;;;;;;;13.75;2.80;;;;;;;;;;5003987;28;20046;-60
2022/03/19 01:27:55;;;;;;;10.93;2.22;;;;;;;;;;5026961;28;20134;-59
2022/03/19 01:30:24;;;;;;;12.43;2.42;;;;;;;;;;5003916;28;20046;-60
2022/03/19 01:32:51;;;;;;;7.43;1.90;;;;;;;;;;5025299;28;20064;-63
2022/03/19 01:35:18;;;;;;;5.43;1.80;;;;;;;;;;5020311;28;20145;-61
2022/03/19 01:37:45;;;;;;;4.47;1.77;;;;;;;;;;5024993;28;20147;-55
2022/03/19 01:40:13;;;;;;;13.95;2.67;;;;;;;;;;5007107;28;20042;-54
2022/03/19 01:42:41;;;;;;;9.05;2.55;;;;;;;;;;5020022;28;20057;-61
2022/03/19 01:45:10;;;;;;;9.40;2.40;;;;;;;;;;5025747;28;20053;-54
2022/03/19 01:47:38;;;;;;;8.63;2.20;;;;;;;;;;5003032;28;20061;-59
2022/03/19 01:50:05;;;;;;;11.82;2.53;;;;;;;;;;5009121;28;20076;-57
2022/03/19 01:52:33;;;;;;;9.02;2.13;;;;;;;;;;5021325;28;20049;-61
2022/03/19 01:55:00;;;;;;;7.82;2.40;;;;;;;;;;5026715;28;20054;-61
2022/03/19 01:57:28;;;;;;;14.40;2.65;;;;;;;;;;5002336;28;20061;-63
2022/03/19 01:59:57;;;;;;;9.63;1.98;;;;;;;;;;5026133;28;20065;-61
2022/03/19 02:02:26;;;;;;;7.22;2.13;;;;;;;;;;5003711;28;20041;-59
2022/03/19 02:04:54;;;;;;;15.55;2.75;;;;;;;;;;5025239;28;20116;-56
2022/03/19 02:07:21;;;;;;;7.32;2.63;;;;;;;;;;5003166;28;20081;-57
2022/03/19 02:09:48;;;;;;;14.68;2.83;;;;;;;;;;5025253;28;20057;-63
2022/03/19 02:12:15;;;;;;;8.15;2.47;;;;;;;;;;5003412;28;20038;-63
2022/03/19 02:14:41;;;;;;;14.40;2.75;;;;;;;;;;5008824;28;20062;-60
2022/03/19 02:17:09;;;;;;;12.25;2.28;;;;;;;;;;5002759;28;20064;-61
2022/03/19 02:19:46;;;;;;;10.45;2.30;;;;;;;;;;5025574;28;20097;-56
2022/03/19 02:22:15;;;;;;;12.88;2.35;;;;;;;;;;5002725;28;20054;-51
2022/03/19 02:27:27;;;;;;;5.78;2.13;;;;;;;;;;5011977;28;20058;-54
2022/03/19 02:29:56;;;;;;;8.30;2.40;;;;;;;;;;5026839;28;20057;-64
2022/03/19 02:32:23;;;;;;;;;;;;;;;;;;5006668;28;20052;-57
2022/03/19 02:34:50;;;;;;;7.90;2.33;;;;;;;;;;5026275;28;19949;-63
2022/03/19 02:37:17;;;;;;;8.13;1.92;;;;;;;;;;5027293;28;20054;-60
2022/03/19 02:39:45;;;;;;;8.70;2.85;;;;;;;;;;5003153;28;20103;-55
2022/03/19 02:42:12;;;;;;;10.50;2.40;;;;;;;;;;5024525;28;20343;-54
2022/03/19 02:44:38;;;;;;;9.80;2.70;;;;;;;;;;5019189;28;20315;-59
2022/03/19 02:47:06;;;;;;;9.13;2.53;;;;;;;;;;5024719;28;20141;-63
2022/03/19 02:49:32;;;;;;;8.95;2.42;;;;;;;;;;5002651;28;20057;-60
2022/03/19 02:52:00;;;;;;;10.18;2.30;;;;;;;;;;5022314;28;20053;-63
2022/03/19 02:54:28;;;;;;;8.30;2.22;;;;;;;;;;5002282;28;20057;-60
2022/03/19 02:56:56;;;;;;;16.40;3.15;;;;;;;;;;5023929;28;20054;-63
2022/03/19 02:59:25;;;;;;;9.88;2.60;;;;;;;;;;5018928;28;20046;-58
2022/03/19 03:01:53;;;;;;;11.68;2.40;;;;;;;;;;5023850;28;20118;-56
2022/03/19 03:04:19;;;;;;;16.93;2.57;;;;;;;;;;5019271;28;20050;-55
2022/03/19 03:06:46;;;;;;;14.07;2.58;;;;;;;;;;5024685;28;20117;-50
2022/03/19 03:09:13;;;;;;;8.90;2.55;;;;;;;;;;5018378;28;20264;-51
2022/03/19 03:11:41;;;;;;;12.15;2.65;;;;;;;;;;5007417;28;20046;-52
2022/03/19 03:14:10;;;;;;;9.65;2.42;;;;;;;;;;5002018;28;20081;-51
2022/03/19 03:16:37;;;;;;;12.98;2.72;;;;;;;;;;5023318;28;20057;-56
2022/03/19 03:19:05;;;;;;;9.68;2.78;;;;;;;;;;5023768;28;20054;-54
2022/03/19 03:21:32;;;;;;;14.38;2.80;;;;;;;;;;5017746;28;20137;-55
2022/03/19 03:23:59;;;;;;;16.58;2.55;;;;;;;;;;5007319;28;20050;-52
2022/03/19 03:26:26;;;;;;;12.88;3.10;;;;;;;;;;5018241;28;20073;-55
2022/03/19 03:28:53;;;;;;;13.05;2.65;;;;;;;;;;5007569;28;20112;-60
2022/03/19 03:31:21;;;;;;;10.52;2.60;;;;;;;;;;5018693;28;20058;-57
2022/03/19 03:33:47;;;;;;;11.93;2.35;;;;;;;;;;5024178;28;20058;-59
2022/03/19 03:36:14;;;;;;;9.52;2.58;;;;;;;;;;5019305;28;20061;-57
2022/03/19 03:38:41;;;;;;;20.13;2.80;;;;;;;;;;5007095;28;20053;-60
2022/03/19 03:41:08;;;;;;;9.00;2.60;;;;;;;;;;5026383;28;20094;-52
2022/03/19 03:43:34;;;;;;;8.57;2.53;;;;;;;;;;5024122;28;20133;-56
2022/03/19 03:46:02;;;;;;;7.68;2.38;;;;;;;;;;5017470;28;20046;-60
2022/03/19 03:48:30;;;;;;;11.30;2.95;;;;;;;;;;5007476;28;20145;-59
2022/03/19 03:50:57;;;;;;;11.05;2.60;;;;;;;;;;5003102;28;20049;-57
2022/03/19 03:53:26;;;;;;;15.70;3.35;;;;;;;;;;5025350;28;20077;-51
2022/03/19 03:55:53;;;;;;;8.73;2.63;;;;;;;;;;5018560;28;20065;-55
2022/03/19 03:58:20;;;;;;;15.00;2.60;;;;;;;;;;5025324;28;20103;-51
2022/03/19 04:00:47;;;;;;;10.95;2.58;;;;;;;;;;5025520;28;20081;-55
2022/03/19 04:03:14;;;;;;;8.83;2.17;;;;;;;;;;5005609;28;20142;-53
2022/03/19 04:05:42;;;;;;;10.63;2.67;;;;;;;;;;5008297;28;20105;-59
2022/03/19 04:08:08;;;;;;;7.90;2.60;;;;;;;;;;5003473;28;20045;-60
2022/03/19 04:10:35;;;;;;;9.77;2.40;;;;;;;;;;5009781;28;20312;-64
2022/03/19 04:13:02;;;;;;;8.35;2.30;;;;;;;;;;5002790;28;20050;-49
2022/03/19 04:15:29;;;;;;;9.95;2.45;;;;;;;;;;5024456;28;20050;-56
2022/03/19 04:17:56;;;;;;;8.13;2.50;;;;;;;;;;5001605;28;20049;-52
2022/03/19 04:20:23;;;;;;;6.97;2.72;;;;;;;;;;5017915;28;20077;-59
2022/03/19 04:22:52;;;;;;;10.75;2.63;;;;;;;;;;5025234;28;20054;-53
2022/03/19 04:25:19;;;;;;;6.57;2.28;;;;;;;;;;5023419;28;20057;-63
2022/03/19 04:27:46;;;;;;;11.05;3.00;;;;;;;;;;5018065;28;20128;-59
2022/03/19 04:30:14;;;;;;;6.53;2.58;;;;;;;;;;5023915;28;20081;-57
2022/03/19 04:32:41;;;;;;;11.82;2.72;;;;;;;;;;5017614;28;20053;-50
2022/03/19 04:37:48;;;;;;;12.57;3.35;;;;;;;;;;5014589;28;20053;-57
2022/03/19 04:40:16;;;;;;;10.52;2.70;;;;;;;;;;5021148;28;20118;-61
2022/03/19 04:42:43;;;;;;;8.48;2.15;;;;;;;;;;5001712;28;20060;-56
2022/03/19 04:45:10;;;;;;;11.88;3.30;;;;;;;;;;5022733;28;20049;-57
2022/03/19 04:47:36;;;;;;;7.63;2.35;;;;;;;;;;5006147;28;20058;-54
2022/03/19 04:50:04;;;;;;;9.60;2.38;;;;;;;;;;5019414;28;20077;-58
2022/03/19 04:52:32;;;;;;;12.23;3.20;;;;;;;;;;5022506;28;20054;-53
2022/03/19 04:55:00;;;;;;;17.27;3.20;;;;;;;;;;5000563;28;20045;-56
2022/03/19 04:57:29;;;;;;;5.80;1.65;;;;;;;;;;5006048;28;20053;-56
2022/03/19 04:59:58;;;;;;;6.05;2.25;;;;;;;;;;5017322;28;20124;-58
2022/03/19 05:02:26;;;;;;;13.35;2.70;;;;;;;;;;5020566;28;20088;-54
2022/03/19 05:04:53;;;;;;;9.25;3.03;;;;;;;;;;5000555;28;20058;-50
2022/03/19 05:07:20;;;;;;;9.65;2.40;;;;;;;;;;5006312;28;20052;-54
2022/03/19 05:12:37;;;;;;;15.85;3.72;;;;;;;;;;5023745;28;20072;-53
2022/03/19 05:15:04;;;;;;;9.27;2.67;;;;;;;;;;5000480;28;20119;-51
2022/03/19 05:17:31;;;;;;;12.10;2.92;;;;;;;;;;5022041;28;20046;-55
2022/03/19 05:19:57;;;;;;;12.32;3.30;;;;;;;;;;5000827;28;20065;-55
2022/03/19 05:22:24;;;;;;;11.32;2.78;;;;;;;;;;5022439;28;20146;-57
2022/03/19 05:24:51;;;;;;;13.98;3.20;;;;;;;;;;5018082;28;20058;-54
2022/03/19 05:27:18;;;;;;;11.95;3.17;;;;;;;;;;5025612;28;20054;-52
2022/03/19 05:29:46;;;;;;;10.98;2.88;;;;;;;;;;5003903;28;20046;-53
2022/03/19 05:32:13;;;;;;;9.80;2.97;;;;;;;;;;5026400;28;20054;-56
2022/03/19 05:34:40;;;;;;;9.38;2.50;;;;;;;;;;5020640;28;20050;-55
2022/03/19 05:37:07;;;;;;;15.60;3.20;;;;;;;;;;5009736;28;20050;-55
2022/03/19 05:39:34;;;;;;;14.00;2.83;;;;;;;;;;5010730;28;20056;-55
2022/03/19 05:42:02;;;;;;;7.47;2.90;;;;;;;;;;5021598;28;20049;-57
2022/03/19 05:44:29;;;;;;;10.35;2.92;;;;;;;;;;5011858;28;20054;-62
2022/03/19 05:46:58;;;;;;;15.68;3.30;;;;;;;;;;5004606;28;20046;-56
2022/03/19 05:49:25;;;;;;;15.82;2.85;;;;;;;;;;5026025;28;20066;-55
2022/03/19 05:51:52;;;;;;;13.88;2.85;;;;;;;;;;5018616;28;20050;-56
2022/03/19 05:54:19;;;;;;;7.72;2.80;;;;;;;;;;5025780;28;20073;-57
2022/03/19 05:56:46;;;;;;;12.43;3.70;;;;;;;;;;5019562;28;20137;-55
2022/03/19 05:59:12;;;;;;;12.88;3.28;;;;;;;;;;5025522;28;20056;-55
2022/03/19 06:01:41;;;;;;;8.82;3.10;;;;;;;;;;5020291;28;20054;-59
2022/03/19 06:04:10;;;;;;;14.60;3.45;;;;;;;;;;5025724;28;20138;-62
2022/03/19 06:06:36;;;;;;;9.63;2.50;;;;;;;;;;5019030;28;20050;-57
2022/03/19 06:09:03;;;;;;;8.63;2.97;;;;;;;;;;5008777;28;20104;-56
2022/03/19 06:11:31;;;;;;;20.92;2.70;;;;;;;;;;5019417;28;20042;-62
2022/03/19 06:13:58;;;;;;;12.50;3.50;;;;;;;;;;5025378;28;20069;-59
2022/03/19 06:16:25;;;;;;;8.18;2.80;;;;;;;;;;5002431;28;20072;-58
2022/03/19 06:18:51;;;;;;;18.15;3.47;;;;;;;;;;5025202;28;20066;-58
2022/03/19 06:21:20;;;;;;;9.45;2.78;;;;;;;;;;5022189;28;20050;-50
2022/03/19 06:23:47;;;;;;;9.40;3.30;;;;;;;;;;5024273;28;20080;-56
2022/03/19 06:26:14;;;;;;;8.77;2.75;;;;;;;;;;5025697;28;20053;-59
2022/03/19 06:28:41;;;;;;;15.30;3.10;;;;;;;;;;5020267;28;20069;-57
2022/03/19 06:31:08;;;;;;;16.10;3.80;;;;;;;;;;5008693;28;20101;-57
2022/03/19 06:33:35;;;;;;;13.52;2.85;;;;;;;;;;5019550;28;20167;-55
2022/03/19 06:38:47;;;;;;;15.10;2.97;;;;;;;;;;5019655;28;20148;-58
2022/03/19 06:41:17;;;;;;;8.98;2.83;;;;;;;;;;5009491;28;20060;-56
2022/03/19 06:43:43;;;;;;;9.70;2.85;;;;;;;;;;5020351;28;20141;-55
2022/03/19 06:46:10;;;;;;;8.80;2.10;;;;;;;;;;5023634;28;20058;-51
2022/03/19 06:48:37;;;;;;;12.43;3.15;;;;;;;;;;5035137;28;20124;-53
2022/03/19 06:51:04;;;;;;;8.88;2.70;;;;;;;;;;5024455;28;20074;-57
2022/03/19 06:53:30;;;;;;;13.15;2.78;;;;;;;;;;5019115;28;20045;-57
2022/03/19 06:55:58;;;;;;;12.13;3.05;;;;;;;;;;5024059;28;20061;-54
2022/03/19 06:58:25;;;;;;;12.63;2.88;;;;;;;;;;5002121;28;20152;-57
2022/03/19 07:00:52;;;;;;;6.57;2.35;;;;;;;;;;5024345;28;20061;-57
2022/03/19 07:03:18;;;;;;;10.57;2.50;;;;;;;;;;5002562;28;20045;-57
2022/03/19 07:05:45;;;;;;;9.07;2.70;;;;;;;;;;5007031;28;20148;-56
2022/03/19 07:08:12;;;;;;;7.25;2.60;;;;;;;;;;5018601;28;20052;-58
2022/03/19 07:10:38;;;;;;;16.35;3.67;;;;;;;;;;5024510;28;20050;-59
2022/03/19 07:13:08;;;;;;;13.90;2.92;;;;;;;;;;5008805;28;20046;-58
2022/03/19 07:15:37;;;;;;;6.47;2.22;;;;;;;;;;5014934;28;20049;-63
2022/03/19 07:18:03;;;;;;;8.55;2.53;;;;;;;;;;5007558;28;20050;-63
2022/03/19 07:20:31;;;;;;;13.57;2.72;;;;;;;;;;5001308;28;20054;-55
2022/03/19 07:22:59;;;;;;;7.05;2.30;;;;;;;;;;5007122;28;20103;-56
2022/03/19 07:25:26;;;;;;;10.02;2.47;;;;;;;;;;5001165;28;20054;-57
2022/03/19 07:27:54;;;;;;;11.73;2.90;;;;;;;;;;5005665;28;20054;-55
2022/03/19 07:30:22;;;;;;;8.40;2.60;;;;;;;;;;5016928;28;20082;-56
2022/03/19 07:32:49;;;;;;;10.18;2.42;;;;;;;;;;5022796;28;20054;-54
2022/03/19 07:35:16;;;;;;;11.52;2.22;;;;;;;;;;5016386;28;20053;-55
2022/03/19 07:37:43;;;;;;;11.05;3.08;;;;;;;;;;5020896;28;20050;-61
2022/03/19 07:40:11;;;;;;;17.38;2.63;;;;;;;;;;5000093;28;20046;-59
2022/03/19 07:42:36;;;;;;;5.78;2.05;;;;;;;;;;5022977;28;20062;-54
2022/03/19 07:45:03;;;;;;;8.40;2.38;;;;;;;;;;5000029;28;20056;-55
2022/03/19 07:47:31;;;;;;;8.65;2.65;;;;;;;;;;5019590;28;20050;-55
2022/03/19 07:49:58;;;;;;;13.13;2.72;;;;;;;;;;5001294;28;20119;-64
2022/03/19 07:52:28;;;;;;;7.07;2.03;;;;;;;;;;5023427;28;20053;-62
2022/03/19 07:54:55;;;;;;;11.55;2.50;;;;;;;;;;5004100;28;20057;-54
2022/03/19 07:57:22;;;;;;;5.65;1.85;;;;;;;;;;5014479;28;20076;-52
2022/03/19 07:59:49;;;;;;;7.32;2.38;;;;;;;;;;5023771;28;20057;-57
2022/03/19 08:02:16;;;;;;;4.30;1.67;;;;;;;;;;5001750;28;20054;-53
2022/03/19 08:04:44;;;;;;;9.95;2.15;;;;;;;;;;5022858;28;20050;-60
2022/03/19 08:07:12;;;;;;;9.25;2.10;;;;;;;;;;5001248;28;20053;-61
2022/03/19 08:09:40;;;;;;;5.95;2.05;;;;;;;;;;5021557;28;20058;-58
2022/03/19 08:12:10;;;;;;;6.10;2.30;;;;;;;;;;5017287;28;20058;-54
2022/03/19 08:14:37;;;;;;;8.52;2.03;;;;;;;;;;5006818;28;20042;-57
2022/03/19 08:17:04;;;;;;;5.88;1.88;;;;;;;;;;5018126;28;20065;-59
2022/03/19 08:19:32;;;;;;;8.25;1.83;;;;;;;;;;5023376;28;20050;-50
2022/03/19 08:22:00;;;;;;;5.97;1.80;;;;;;;;;;5018556;28;20050;-51
2022/03/19 08:24:30;;;;;;;2.42;0.95;;;;;;;;;;5008381;28;20077;-52
2022/03/19 08:26:56;;;;;;;7.65;1.80;;;;;;;;;;5017884;28;20131;-62
2022/03/19 08:29:25;;;;;;;14.20;1.80;;;;;;;;;;5023093;28;20140;-58
2022/03/19 08:31:54;;;;;;;8.55;2.05;;;;;;;;;;5017182;28;20056;-63
2022/03/19 08:34:21;;;;;;;8.30;2.05;;;;;;;;;;5006423;28;20112;-62
2022/03/19 08:36:48;;;;;;;8.95;1.77;;;;;;;;;;5016496;28;20062;-57
2022/03/19 08:42:02;;;;;;;5.72;1.70;;;;;;;;;;5017992;28;20072;-57
2022/03/19 08:44:28;;;;;;;3.58;1.45;;;;;;;;;;5023061;28;20050;-57
2022/03/19 08:46:55;;;;;;;8.57;1.85;;;;;;;;;;5005975;28;20046;-56
2022/03/19 08:49:23;;;;;;;9.73;2.42;;;;;;;;;;5022834;28;20058;-63
2022/03/19 08:51:51;;;;;;;3.92;1.88;;;;;;;;;;5025153;28;20153;-63
2022/03/19 08:54:20;;;;;;;6.82;1.73;;;;;;;;;;5008019;28;20053;-60
2022/03/19 08:56:48;;;;;;;9.65;1.85;;;;;;;;;;5022818;28;20054;-59
2022/03/19 08:59:16;;;;;;;10.50;1.73;;;;;;;;;;5002191;28;20073;-60
2022/03/19 09:01:44;;;;;;;3.55;1.20;;;;;;;;;;5027220;28;20065;-53
2022/03/19 09:04:11;;;;;;;7.75;1.67;;;;;;;;;;5004695;28;20064;-63
2022/03/19 09:06:38;;;;;;;10.30;2.60;;;;;;;;;;5026703;28;20057;-59
2022/03/19 09:09:05;;;;;;;6.03;2.00;;;;;;;;;;5020582;28;20058;-54
2022/03/19 09:11:36;;;;;;;6.88;2.30;;;;;;;;;;5026257;28;20056;-59
2022/03/19 09:14:03;;;;;;;10.00;2.40;;;;;;;;;;5016502;28;20112;-52
2022/03/19 09:16:31;;;;;;;4.95;1.33;;;;;;;;;;5026313;28;20077;-52
2022/03/19 09:18:57;;;;;;;7.50;2.35;;;;;;;;;;5019999;28;20050;-62
2022/03/19 09:21:29;;;;;;;6.25;1.02;;;;;;;;;;5017515;28;20135;-53
2022/03/19 09:23:56;;;;;;;4.82;1.67;;;;;;;;;;5005684;28;20147;-54
2022/03/19 09:26:23;;;;;;;6.65;1.80;;;;;;;;;;5025726;28;20058;-55
2022/03/19 09:28:51;;;;;;;6.95;1.77;;;;;;;;;;5020351;28;20179;-52
2022/03/19 09:31:20;;;;;;;4.40;1.65;;;;;;;;;;5009337;28;20053;-55
2022/03/19 09:33:47;;;;;;;4.40;1.35;;;;;;;;;;5006021;28;20173;-62
2022/03/19 09:36:15;;;;;;;6.00;1.70;;;;;;;;;;5025318;28;20072;-60
2022/03/19 09:38:42;;;;;;;10.33;1.40;;;;;;;;;;5010128;28;20060;-54
2022/03/19 09:41:10;;;;;;;9.15;1.48;;;;;;;;;;5004085;28;20060;-56
2022/03/19 09:43:36;;;;;;;4.70;1.60;;;;;;;;;;5025877;28;20100;-51
2022/03/19 09:46:07;;;;;;;4.28;1.42;;;;;;;;;;5021641;28;20060;-52
2022/03/19 09:48:35;;;;;;;2.90;0.80;;;;;;;;;;5027735;28;20049;-61
2022/03/19 09:51:06;;;;;;;4.90;1.67;;;;;;;;;;5028134;28;20061;-57
2022/03/19 09:53:33;;;;;;;5.00;1.50;;;;;;;;;;5022142;28;20054;-58
2022/03/19 09:56:03;;;;;;;4.47;1.50;;;;;;;;;;5010501;28;20050;-59
2022/03/19 09:58:32;;;;;;;2.65;0.75;;;;;;;;;;5023586;28;20052;-54
2022/03/19 10:01:07;;;;;;;3.70;1.48;;;;;;;;;;5020581;28;20057;-53
2022/03/19 10:03:33;;;;;;;1.83;0.70;;;;;;;;;;5026110;28;20062;-56
2022/03/19 10:08:55;;;;;;;7.25;1.23;;;;;;;;;;5024971;28;20065;-61
2022/03/19 10:11:25;;;;;;;4.95;1.40;;;;;;;;;;5018971;28;20049;-61
2022/03/19 10:13:52;;;;;;;4.85;1.13;;;;;;;;;;5026249;28;20046;-56
2022/03/19 10:16:24;;;;;;;6.53;1.55;;;;;;;;;;5004096;28;20073;-54
2022/03/19 10:18:55;;;;;;;2.40;0.73;;;;;;;;;;5025514;28;20062;-62
2022/03/19 10:21:23;;;;;;;6.70;1.05;;;;;;;;;;5025218;28;20049;-58
2022/03/19 10:23:52;;;;;;;5.68;1.30;;;;;;;;;;5016005;28;20061;-56
2022/03/19 10:26:26;;;;;;;8.88;1.45;;;;;;;;;;5022579;28;20049;-53
2022/03/19 10:28:57;;;;;;;5.88;1.27;;;;;;;;;;5009019;28;20061;-56
2022/03/19 10:31:35;;;;;;;5.47;1.20;;;;;;;;;;5003975;28;20073;-57
2022/03/19 10:34:03;;;;;;;2.83;0.93;;;;;;;;;;5025510;28;20054;-59
2022/03/19 10:36:31;;;;;;;11.30;0.95;;;;;;;;;;5003520;28;20088;-56
2022/03/19 10:38:58;;;;;;;6.72;1.27;;;;;;;;;;5025443;28;20054;-58
2022/03/19 10:41:26;;;;;;;2.13;0.88;;;;;;;;;;5022102;28;20061;-58
2022/03/19 10:43:53;;;;;;;2.72;0.75;;;;;;;;;;5025461;28;20049;-57
2022/03/19 10:46:19;;;;;;;7.97;0.90;;;;;;;;;;5026323;28;20081;-56
2022/03/19 10:48:54;;;;;;;9.00;1.17;;;;;;;;;;5020061;28;20050;-55
2022/03/19 10:51:22;;;;;;;6.60;1.25;;;;;;;;;;5011985;28;20062;-58
2022/03/19 10:53:50;;;;;;;1.50;0.65;;;;;;;;;;5001666;28;20045;-53
2022/03/19 10:56:16;;;;;;;4.93;0.70;;;;;;;;;;5009904;28;20054;-56
2022/03/19 10:58:44;;;;;;;4.68;1.20;;;;;;;;;;5000012;28;20073;-55
2022/03/19 11:01:12;;;;;;;6.63;1.40;;;;;;;;;;5010479;28;20057;-56
2022/03/19 11:03:40;;;;;;;5.57;1.25;;;;;;;;;;5017273;28;20060;-58
2022/03/19 11:06:09;;;;;;;3.78;1.25;;;;;;;;;;5023999;28;20108;-57
2022/03/19 11:08:38;;;;;;;7.18;0.90;;;;;;;;;;5018492;28;20049;-62
2022/03/19 11:11:07;;;;;;;3.88;1.10;;;;;;;;;;5024526;28;20050;-55
2022/03/19 11:13:37;;;;;;;11.73;1.20;;;;;;;;;;5019328;28;20049;-60
2022/03/19 11:16:04;;;;;;;5.00;0.98;;;;;;;;;;5008080;28;20053;-60
2022/03/19 11:18:31;;;;;;;5.60;1.25;;;;;;;;;;5018930;28;20064;-60
2022/03/19 11:20:58;;;;;;;4.43;1.10;;;;;;;;;;5007640;28;20064;-61
2022/03/19 11:23:31;;;;;;;5.20;1.35;;;;;;;;;;5018900;28;20049;-63
2022/03/19 11:25:59;;;;;;;4.57;1.05;;;;;;;;;;5025128;28;20057;-61
2022/03/19 11:28:26;;;;;;;1.90;0.60;;;;;;;;;;5018076;28;20057;-58
2022/03/19 11:31:00;;;;;;;24.33;1.10;;;;;;;;;;5024510;28;20062;-59
2022/03/19 11:33:31;;;;;;;4.72;1.27;;;;;;;;;;5020649;28;20049;-57
2022/03/19 11:36:05;;;;;;;2.53;0.80;;;;;;;;;;5007995;28;20057;-62
2022/03/19 11:38:34;;;;;;;3.28;0.98;;;;;;;;;;5007117;28;20058;-60
2022/03/19 11:41:16;;;;;;;2.75;1.00;;;;;;;;;;5020357;28;20050;-58
2022/03/19 11:43:43;;;;;;;4.70;1.30;;;;;;;;;;5013449;28;20050;-57
2022/03/19 11:46:13;;;;;;;8.63;1.23;;;;;;;;;;5018578;28;20060;-59
2022/03/19 11:48:59;;;;;;;3.40;0.95;;;;;;;;;;5023113;28;20213;-58
2022/03/19 11:51:32;;;;;;;9.32;1.00;;;;;;;;;;5005013;28;20054;-58
2022/03/19 11:54:01;;;;;;;4.07;1.00;;;;;;;;;;5024362;28;20049;-57
2022/03/19 11:56:28;;;;;;;6.15;1.10;;;;;;;;;;5002294;28;20056;-61
2022/03/19 11:58:56;;;;;;;5.45;0.82;;;;;;;;;;5005207;28;20054;-59
2022/03/19 12:04:24;;;;;;;2.13;0.70;;;;;;;;;;5023323;28;20129;-62
2022/03/19 12:06:53;;;;;;;2.38;0.70;;;;;;;;;;5015568;28;20061;-56
2022/03/19 12:09:31;;;;;;;5.03;0.93;;;;;;;;;;5022898;28;20085;-59
2022/03/19 12:12:08;;;;;;;3.95;1.00;;;;;;;;;;5016566;28;20046;-57
2022/03/19 12:14:35;;;;;;;7.10;1.17;;;;;;;;;;5022210;28;20061;-58
2022/03/19 12:17:16;;;;;;;2.63;1.00;;;;;;;;;;4999108;28;20046;-59
2022/03/19 12:19:49;;;;;;;3.33;1.08;;;;;;;;;;5020821;28;20053;-60
2022/03/19 12:22:29;;;;;;;3.20;0.80;;;;;;;;;;5016085;28;20053;-60
2022/03/19 12:25:06;;;;;;;5.63;0.98;;;;;;;;;;5025183;28;20142;-61
2022/03/19 12:27:32;;;;;;;3.60;0.75;;;;;;;;;;5002005;28;20075;-61
2022/03/19 12:29:59;;;;;;;3.30;1.15;;;;;;;;;;5008625;28;20117;-62
2022/03/19 12:32:29;;;;;;;2.55;0.75;;;;;;;;;;5001678;28;20085;-61
2022/03/19 12:35:00;;;;;;;2.15;0.90;;;;;;;;;;5027410;28;20054;-63
2022/03/19 12:37:26;;;;;;;2.92;0.75;;;;;;;;;;5019417;28;20050;-57
2022/03/19 12:40:09;;;;;;;2.65;0.60;;;;;;;;;;5008193;28;20053;-57
2022/03/19 12:42:52;;;;;;;2.70;0.90;;;;;;;;;;5003613;28;20042;-58
2022/03/19 12:45:20;;;;;;;2.85;0.70;;;;;;;;;;5005822;28;20054;-59
2022/03/19 12:47:50;;;;;;;4.63;0.90;;;;;;;;;;5028276;28;20160;-59
2022/03/19 12:50:21;;;;;;;5.07;1.08;;;;;;;;;;5008635;28;20050;-59
2022/03/19 12:52:49;;;;;;;2.28;0.98;;;;;;;;;;5035833;28;20081;-62
2022/03/19 12:55:21;;;;;;;1.70;0.80;;;;;;;;;;5026693;28;20077;-62
2022/03/19 12:57:56;;;;;;;5.50;1.20;;;;;;;;;;5004320;28;20058;-60
2022/03/19 13:00:23;;;;;;;3.38;0.90;;;;;;;;;;5026970;28;20058;-60
2022/03/19 13:02:57;;;;;;;4.88;0.93;;;;;;;;;;5021032;28;20066;-63
2022/03/19 13:05:23;;;;;;;5.65;0.80;;;;;;;;;;5008950;28;20060;-57
2022/03/19 13:08:04;;;;;;;2.83;0.95;;;;;;;;;;5019982;28;20050;-62
2022/03/19 13:10:40;;;;;;;2.03;0.63;;;;;;;;;;5013628;28;20092;-61
2022/03/19 13:13:07;;;;;;;4.53;0.85;;;;;;;;;;5010062;28;20052;-58
2022/03/19 13:15:34;;;;;;;3.28;0.80;;;;;;;;;;5027208;28;20112;-57
2022/03/19 13:18:01;;;;;;;3.72;0.57;;;;;;;;;;5021400;28;20046;-59
2022/03/19 13:20:28;;;;;;;5.53;1.17;;;;;;;;;;5016207;28;20067;-59
2022/03/19 13:23:01;;;;;;;4.35;1.02;;;;;;;;;;5008519;28;20054;-59
2022/03/19 13:25:30;;;;;;;2.20;0.80;;;;;;;;;;5010665;28;20053;-60
2022/03/19 13:28:03;;;;;;;4.88;0.80;;;;;;;;;;5021652;28;20050;-58
2022/03/19 13:30:30;;;;;;;3.58;0.80;;;;;;;;;;4990705;28;20046;-60
2022/03/19 13:32:58;;;;;;;1.90;0.65;;;;;;;;;;4990166;28;20081;-61
2022/03/19 13:35:37;;;;;;;6.85;0.93;;;;;;;;;;5013627;28;20044;-59
2022/03/19 13:38:08;;;;;;;3.08;0.90;;;;;;;;;;5009852;28;20071;-61
2022/03/19 13:40:35;;;;;;;1.30;0.47;;;;;;;;;;4996957;28;20065;-63
2022/03/19 13:43:03;;;;;;;3.90;0.80;;;;;;;;;;5026367;28;20069;-59
2022/03/19 13:50:41;;;;;;;5.18;1.20;;;;;;;;;;6117095;22;20046;-59
2022/03/19 13:53:09;;;;;;;2.03;0.80;;;;;;;;;;5031434;28;20070;-59
2022/03/19 13:55:40;;;;;;;3.80;1.00;;;;;;;;;;5025751;28;20053;-59
2022/03/19 13:58:09;;;;;;;6.03;1.00;;;;;;;;;;5029624;28;20121;-57
2022/03/19 14:00:39;;;;;;;3.58;0.80;;;;;;;;;;5028707;28;20060;-59
2022/03/19 14:03:07;;;;;;;5.15;0.80;;;;;;;;;;5033077;28;20052;-59
2022/03/19 14:05:35;;;;;;;6.65;1.00;;;;;;;;;;5028247;28;20052;-58
2022/03/19 14:08:03;;;;;;;1.63;0.70;;;;;;;;;;5031401;28;20045;-58
2022/03/19 14:10:30;;;;;;;6.45;0.85;;;;;;;;;;5028648;28;20064;-60
2022/03/19 14:13:02;;;;;;;7.03;1.00;;;;;;;;;;5032483;28;20076;-59
2022/03/19 14:15:36;;;;;;;4.60;0.77;;;;;;;;;;5025053;28;20068;-59
2022/03/19 14:18:02;;;;;;;3.15;0.85;;;;;;;;;;5030334;28;20140;-58
2022/03/19 14:20:29;;;;;;;3.67;0.70;;;;;;;;;;5031296;28;20136;-58
2022/03/19 14:22:57;;;;;;;1.80;0.60;;;;;;;;;;5030078;28;20100;-59
2022/03/19 14:25:23;;;;;;;1.48;0.70;;;;;;;;;;5025486;28;20133;-60
2022/03/19 14:27:50;;;;;;;3.88;0.70;;;;;;;;;;5026231;28;20045;-58
2022/03/19 14:30:17;;;;;;;3.00;0.77;;;;;;;;;;5032117;28;20045;-60
2022/03/19 14:32:45;;;;;;;3.92;0.95;;;;;;;;;;5027591;28;20056;-58
2022/03/19 14:35:38;;;;;;;1.48;0.43;;;;;;;;;;5032747;28;20053;-59
2022/03/19 14:38:05;;;;;;;2.05;0.90;;;;;;;;;;5027168;28;20072;-58
2022/03/19 14:40:31;;;;;;;5.32;0.60;;;;;;;;;;5029467;28;20057;-60
2022/03/19 14:42:59;;;;;;;3.47;0.82;;;;;;;;;;5027390;28;20093;-58
2022/03/19 14:45:26;;;;;;;1.98;0.90;;;;;;;;;;5030797;28;20057;-58
2022/03/19 14:47:54;;;;;;;1.65;0.60;;;;;;;;;;5026700;28;20068;-58
2022/03/19 14:50:20;;;;;;;7.40;1.13;;;;;;;;;;5029324;28;20053;-58
2022/03/19 14:52:48;;;;;;;3.88;0.70;;;;;;;;;;5028468;28;20153;-59
2022/03/19 14:55:14;;;;;;;2.38;0.75;;;;;;;;;;5032096;28;20057;-59
2022/03/19 14:57:41;;;;;;;6.60;0.80;;;;;;;;;;5024945;28;20088;-58
2022/03/19 15:00:10;;;;;;;1.90;0.73;;;;;;;;;;5033219;28;20063;-58
2022/03/19 15:02:37;;;;;;;3.20;0.90;;;;;;;;;;5026949;28;20056;-59
2022/03/19 15:05:06;;;;;;;2.50;0.65;;;;;;;;;;5027726;28;20052;-58
2022/03/19 15:07:32;;;;;;;2.17;0.70;;;;;;;;;;5027374;28;20064;-58
2022/03/19 15:10:02;;;;;;;5.25;0.70;;;;;;;;;;5032353;28;20163;-57
2022/03/19 15:12:28;;;;;;;4.55;0.90;;;;;;;;;;5001530;28;20049;-58